Time;durP1;ratioP1;P1;durP2;ratioP2;P2;SDS_P1;SDS_P2;PMS_P1;PMS_P2;Temp;Humidity;BMP_temperature;BMP_pressure;BME280_temperature;BME280_humidity;BME280_pressure;Samples;Min_cycle;Max_cycle;Signal;HPM_P1;HPM_P2
2022/01/06 00:01:40;;;;;;;8.25;1.42;;;4.50;99.90;;;;;;5069332;28;20076;-65
2022/01/06 00:04:05;;;;;;;7.85;1.15;;;4.50;99.90;;;;;;5069034;28;20088;-66
2022/01/06 00:06:36;;;;;;;4.82;1.00;;;4.50;99.90;;;;;;5068751;28;20658;-66
2022/01/06 00:09:03;;;;;;;6.82;2.15;;;4.40;99.90;;;;;;5068940;28;20087;-65
2022/01/06 00:11:29;;;;;;;10.43;1.65;;;4.40;99.90;;;;;;5069143;28;20185;-65
2022/01/06 00:14:10;;;;;;;6.07;1.77;;;4.40;99.90;;;;;;5068438;28;20091;-65
2022/01/06 00:16:47;;;;;;;8.88;1.70;;;4.30;99.90;;;;;;5061558;28;20045;-66
2022/01/06 00:24:40;;;;;;;13.43;3.20;;;4.40;99.90;;;;;;5054059;28;20049;-66
2022/01/06 00:27:06;;;;;;;11.57;2.00;;;4.30;99.90;;;;;;5053036;28;20072;-66
2022/01/06 00:29:31;;;;;;;12.15;1.85;;;4.30;99.90;;;;;;5053980;28;20059;-66
2022/01/06 00:31:57;;;;;;;12.02;2.10;;;4.30;99.90;;;;;;5052605;28;20450;-66
2022/01/06 00:34:23;;;;;;;9.82;2.03;;;4.40;99.90;;;;;;5053136;28;20451;-66
2022/01/06 00:36:49;;;;;;;24.83;3.45;;;4.30;99.90;;;;;;5053903;28;20049;-66
2022/01/06 00:39:14;;;;;;;15.75;3.40;;;4.30;99.90;;;;;;5052344;28;20085;-65
2022/01/06 00:41:40;;;;;;;12.65;2.28;;;4.30;99.90;;;;;;5053249;28;20546;-66
2022/01/06 00:44:07;;;;;;;12.90;2.60;;;4.40;99.90;;;;;;5053311;28;20048;-65
2022/01/06 00:46:32;;;;;;;7.85;2.08;;;4.30;99.90;;;;;;5052670;28;20063;-66
2022/01/06 00:48:58;;;;;;;18.02;2.83;;;4.40;99.90;;;;;;5051930;28;20049;-65
2022/01/06 00:51:23;;;;;;;7.82;2.42;;;4.30;99.90;;;;;;5053312;28;20048;-65
2022/01/06 00:53:49;;;;;;;7.60;2.40;;;4.40;99.90;;;;;;5052263;28;20057;-65
2022/01/06 00:56:15;;;;;;;8.50;2.28;;;4.40;99.90;;;;;;5051089;28;20411;-65
2022/01/06 00:58:40;;;;;;;17.98;3.55;;;4.40;99.90;;;;;;5053407;28;20457;-65
2022/01/06 01:01:06;;;;;;;11.98;1.98;;;4.30;99.90;;;;;;5053217;28;20465;-66
2022/01/06 01:03:32;;;;;;;11.90;2.53;;;4.30;99.90;;;;;;5051297;28;20045;-65
2022/01/06 01:05:58;;;;;;;9.45;2.70;;;4.30;99.90;;;;;;5056822;28;20048;-65
2022/01/06 01:08:25;;;;;;;14.48;2.00;;;4.30;99.90;;;;;;5059850;28;20490;-66
2022/01/06 01:10:53;;;;;;;8.00;2.63;;;4.30;99.90;;;;;;5058172;28;20033;-66
2022/01/06 01:13:27;;;;;;;15.68;2.83;;;4.20;99.90;;;;;;5067308;28;20083;-66
2022/01/06 01:15:56;;;;;;;10.52;3.17;;;4.20;99.90;;;;;;5057222;28;20076;-66
2022/01/06 01:18:22;;;;;;;8.45;2.20;;;4.20;99.90;;;;;;5053391;28;20086;-66
2022/01/06 01:20:50;;;;;;;7.90;1.98;;;4.10;99.90;;;;;;5062974;28;20045;-65
2022/01/06 01:23:16;;;;;;;7.13;1.90;;;4.10;99.90;;;;;;5065489;28;20101;-65
2022/01/06 01:25:42;;;;;;;11.50;2.40;;;4.10;99.90;;;;;;5051438;28;20495;-65
2022/01/06 01:28:07;;;;;;;7.97;2.22;;;4.00;99.90;;;;;;5050689;28;20071;-65
2022/01/06 01:30:40;;;;;;;13.60;1.75;;;4.00;99.90;;;;;;5052453;28;20044;-66
2022/01/06 01:33:14;;;;;;;8.07;2.78;;;3.90;99.90;;;;;;5051108;28;20057;-66
2022/01/06 01:35:41;;;;;;;15.07;2.55;;;3.90;99.90;;;;;;5052849;28;20044;-65
2022/01/06 01:38:07;;;;;;;14.27;3.30;;;3.90;99.90;;;;;;5050214;28;20400;-65
2022/01/06 01:40:33;;;;;;;14.60;1.77;;;3.90;99.90;;;;;;5051296;28;20045;-66
2022/01/06 01:42:58;;;;;;;15.52;2.67;;;3.80;99.90;;;;;;5051416;28;20049;-65
2022/01/06 01:45:29;;;;;;;13.13;2.70;;;3.80;99.90;;;;;;5051725;28;20045;-65
2022/01/06 01:47:57;;;;;;;7.57;2.45;;;3.90;99.90;;;;;;5051489;28;20052;-66
2022/01/06 01:50:22;;;;;;;11.60;2.80;;;3.70;99.90;;;;;;5053586;28;20052;-65
2022/01/06 01:52:51;;;;;;;15.60;3.35;;;3.70;99.90;;;;;;5060795;28;20056;-66
2022/01/06 01:55:22;;;;;;;18.45;4.18;;;3.70;99.90;;;;;;5065021;28;20499;-65
2022/01/06 01:57:48;;;;;;;23.13;3.45;;;3.80;99.90;;;;;;5058851;28;20147;-65
2022/01/06 02:00:15;;;;;;;22.48;3.22;;;3.80;99.90;;;;;;5057424;28;20056;-66
2022/01/06 02:02:41;;;;;;;9.75;3.70;;;3.80;99.90;;;;;;5052294;28;20120;-65
2022/01/06 02:05:08;;;;;;;16.88;2.78;;;3.80;99.90;;;;;;5050040;28;20132;-65
2022/01/06 02:07:34;;;;;;;11.25;2.92;;;3.80;99.90;;;;;;5057649;28;20044;-65
2022/01/06 02:10:01;;;;;;;12.75;2.05;;;3.90;99.90;;;;;;5067463;28;20056;-65
2022/01/06 02:12:30;;;;;;;17.90;3.83;;;3.90;99.90;;;;;;5051192;28;20487;-65
2022/01/06 02:14:57;;;;;;;8.98;2.65;;;3.90;99.90;;;;;;5051895;28;20067;-65
2022/01/06 02:17:23;;;;;;;15.70;2.80;;;3.90;99.90;;;;;;5055548;28;20052;-65
2022/01/06 02:19:59;;;;;;;17.80;3.13;;;3.80;99.90;;;;;;5057388;28;20055;-65
2022/01/06 02:22:25;;;;;;;9.38;2.42;;;3.80;99.90;;;;;;5067871;28;20041;-66
2022/01/06 02:24:52;;;;;;;15.25;2.65;;;3.80;99.90;;;;;;5051899;28;20484;-65
2022/01/06 02:27:21;;;;;;;10.57;2.58;;;3.80;99.90;;;;;;5049458;28;20056;-65
2022/01/06 02:29:51;;;;;;;13.07;2.20;;;3.70;99.90;;;;;;5051786;28;20140;-65
2022/01/06 02:32:18;;;;;;;12.60;2.45;;;3.70;99.90;;;;;;5053799;28;20088;-65
2022/01/06 02:34:47;;;;;;;13.38;2.10;;;3.70;99.90;;;;;;5064991;28;20056;-65
2022/01/06 02:37:14;;;;;;;18.23;3.25;;;3.60;99.90;;;;;;5051398;28;20455;-65
2022/01/06 02:39:42;;;;;;;8.57;2.58;;;3.60;99.90;;;;;;5049922;28;20135;-68
2022/01/06 02:42:08;;;;;;;10.75;1.77;;;3.60;99.90;;;;;;5049907;28;20098;-65
2022/01/06 02:44:37;;;;;;;13.35;2.33;;;3.50;99.90;;;;;;5050104;28;20057;-66
2022/01/06 02:47:04;;;;;;;10.48;2.63;;;3.60;99.90;;;;;;5051205;28;20092;-65
2022/01/06 02:49:29;;;;;;;13.18;2.67;;;3.70;99.90;;;;;;5049932;28;20065;-66
2022/01/06 02:51:55;;;;;;;17.65;2.35;;;3.50;99.90;;;;;;5050272;28;20076;-65
2022/01/06 02:54:21;;;;;;;11.02;2.65;;;3.40;99.90;;;;;;5050502;28;20083;-65
2022/01/06 02:56:48;;;;;;;6.78;1.77;;;3.50;99.90;;;;;;5051182;28;20090;-65
2022/01/06 02:59:15;;;;;;;10.73;2.63;;;3.40;99.90;;;;;;5049480;28;20052;-65
2022/01/06 03:01:42;;;;;;;7.80;2.00;;;3.40;99.90;;;;;;5049497;28;20455;-65
2022/01/06 03:04:08;;;;;;;14.27;3.55;;;3.40;99.90;;;;;;5050880;28;20067;-65
2022/01/06 03:06:34;;;;;;;18.02;3.47;;;3.30;99.90;;;;;;5050965;28;20048;-65
2022/01/06 03:09:00;;;;;;;14.98;3.50;;;3.30;99.90;;;;;;5050635;28;20098;-66
2022/01/06 03:11:26;;;;;;;16.02;3.40;;;3.20;99.90;;;;;;5050437;28;20399;-65
2022/01/06 03:13:53;;;;;;;14.85;2.55;;;3.20;99.90;;;;;;5059211;28;20053;-65
2022/01/06 03:16:19;;;;;;;15.13;2.40;;;3.20;99.90;;;;;;5055595;28;20057;-65
2022/01/06 03:18:44;;;;;;;13.13;2.45;;;3.20;99.90;;;;;;5056980;28;20055;-65
2022/01/06 03:21:10;;;;;;;12.40;2.00;;;3.20;99.90;;;;;;5058894;28;20048;-66
2022/01/06 03:23:36;;;;;;;11.38;2.72;;;3.10;99.90;;;;;;5056171;28;20071;-66
2022/01/06 03:26:01;;;;;;;13.35;2.28;;;3.10;99.90;;;;;;5058040;28;20044;-66
2022/01/06 03:28:27;;;;;;;11.80;2.90;;;3.00;99.90;;;;;;5060634;28;20090;-65
2022/01/06 03:30:52;;;;;;;17.10;3.05;;;3.10;99.90;;;;;;5066830;28;20049;-65
2022/01/06 03:33:18;;;;;;;9.20;2.13;;;3.00;99.90;;;;;;5059144;28;20059;-65
2022/01/06 03:35:44;;;;;;;7.32;2.13;;;2.90;99.90;;;;;;5066651;28;20041;-65
2022/01/06 03:38:09;;;;;;;13.10;2.20;;;2.80;99.90;;;;;;5069770;28;20165;-65
2022/01/06 03:40:35;;;;;;;7.68;1.88;;;2.70;99.90;;;;;;5055389;28;20129;-65
2022/01/06 03:43:00;;;;;;;8.45;1.77;;;2.60;99.90;;;;;;5050295;28;20049;-65
2022/01/06 03:45:26;;;;;;;9.48;1.73;;;2.60;99.90;;;;;;5050022;28;20037;-65
2022/01/06 03:47:52;;;;;;;8.32;3.20;;;2.50;99.90;;;;;;5050682;28;20098;-66
2022/01/06 03:50:17;;;;;;;10.95;1.92;;;2.40;99.90;;;;;;5050113;28;20153;-66
2022/01/06 03:52:43;;;;;;;17.10;2.08;;;2.40;99.90;;;;;;5054409;28;20043;-65
2022/01/06 03:55:12;;;;;;;17.65;2.83;;;2.40;99.90;;;;;;5054447;28;20041;-65
2022/01/06 03:57:37;;;;;;;9.75;2.00;;;2.40;99.90;;;;;;5054002;28;20377;-65
2022/01/06 04:00:09;;;;;;;17.85;3.67;;;2.40;99.90;;;;;;5053536;28;20052;-65
2022/01/06 04:02:34;;;;;;;12.40;2.58;;;2.40;99.90;;;;;;5054695;28;20063;-65
2022/01/06 04:05:02;;;;;;;12.20;2.60;;;2.40;99.90;;;;;;5054052;28;20029;-65
2022/01/06 04:07:27;;;;;;;15.73;3.15;;;2.40;99.90;;;;;;5054034;28;20056;-65
2022/01/06 04:09:53;;;;;;;9.57;2.30;;;2.40;99.90;;;;;;5054250;28;20041;-65
2022/01/06 04:12:19;;;;;;;19.27;3.45;;;2.40;99.90;;;;;;5053418;28;20060;-65
2022/01/06 04:14:44;;;;;;;18.17;3.42;;;2.40;99.90;;;;;;5054314;28;20066;-65
2022/01/06 04:17:10;;;;;;;9.43;3.03;;;2.70;99.90;;;;;;5053902;28;20052;-65
2022/01/06 04:19:36;;;;;;;13.35;3.05;;;2.50;99.90;;;;;;5053639;28;20126;-65
2022/01/06 04:22:04;;;;;;;8.70;2.28;;;2.60;99.90;;;;;;5053185;28;20063;-65
2022/01/06 04:24:30;;;;;;;22.00;3.78;;;2.60;99.90;;;;;;5054183;28;20045;-65
2022/01/06 04:26:55;;;;;;;26.20;3.58;;;2.60;99.90;;;;;;5052040;28;20057;-65
2022/01/06 04:29:21;;;;;;;17.30;2.55;;;2.60;99.90;;;;;;5052372;28;20045;-65
2022/01/06 04:31:46;;;;;;;10.55;2.80;;;2.70;99.90;;;;;;5052704;28;20063;-65
2022/01/06 04:34:12;;;;;;;12.20;2.58;;;2.60;99.90;;;;;;5051893;28;20052;-65
2022/01/06 04:36:39;;;;;;;16.70;2.95;;;2.60;99.90;;;;;;5052808;28;20053;-65
2022/01/06 04:39:08;;;;;;;10.15;2.60;;;2.50;99.90;;;;;;5052096;28;20582;-65
2022/01/06 04:41:33;;;;;;;14.82;3.72;;;3.50;99.90;;;;;;5053134;28;20049;-65
2022/01/06 04:43:59;;;;;;;16.08;2.95;;;2.40;99.90;;;;;;5052320;28;20049;-65
2022/01/06 04:46:25;;;;;;;7.63;1.75;;;2.30;99.90;;;;;;5053022;28;20053;-65
2022/01/06 04:48:53;;;;;;;14.43;3.30;;;2.20;99.90;;;;;;5052265;28;20483;-64
2022/01/06 04:51:18;;;;;;;12.43;2.67;;;2.20;99.90;;;;;;5053370;28;20055;-65
2022/01/06 04:53:44;;;;;;;9.70;2.53;;;2.10;99.90;;;;;;5052914;28;20136;-65
2022/01/06 04:56:09;;;;;;;13.63;2.72;;;2.10;99.90;;;;;;5053143;28;20049;-65
2022/01/06 04:58:36;;;;;;;24.38;5.57;;;1.80;99.90;;;;;;5053488;28;20139;-64
2022/01/06 05:01:01;;;;;;;10.75;1.83;;;1.70;99.90;;;;;;5052471;28;20655;-65
2022/01/06 05:03:27;;;;;;;5.50;2.55;;;1.60;99.90;;;;;;5052580;28;20102;-65
2022/01/06 05:05:52;;;;;;;7.50;2.00;;;1.70;99.90;;;;;;5053318;28;20057;-65
2022/01/06 05:08:18;;;;;;;6.40;1.40;;;1.40;99.90;;;;;;5051381;28;20400;-65
2022/01/06 05:10:44;;;;;;;7.72;2.00;;;1.30;99.90;;;;;;5053280;28;20041;-65
2022/01/06 05:13:09;;;;;;;15.70;2.10;;;1.20;99.90;;;;;;5052903;28;20045;-65
2022/01/06 05:15:35;;;;;;;11.15;2.80;;;1.30;99.90;;;;;;5052568;28;20059;-65
2022/01/06 05:18:00;;;;;;;12.07;2.78;;;1.00;99.90;;;;;;5053152;28;20048;-65
2022/01/06 05:20:26;;;;;;;7.50;2.25;;;1.00;99.90;;;;;;5051758;28;20063;-65
2022/01/06 05:22:56;;;;;;;15.13;3.17;;;0.90;99.90;;;;;;5055400;28;20778;-65
2022/01/06 05:25:26;;;;;;;13.38;2.88;;;0.90;99.90;;;;;;5062418;28;20041;-65
2022/01/06 05:27:54;;;;;;;14.23;2.53;;;0.80;99.90;;;;;;5058952;28;20128;-65
2022/01/06 05:30:21;;;;;;;8.43;2.10;;;0.90;99.90;;;;;;5070572;28;20506;-65
2022/01/06 05:32:47;;;;;;;14.23;3.22;;;0.90;99.90;;;;;;5070403;28;20515;-65
2022/01/06 05:35:13;;;;;;;16.98;2.25;;;0.90;99.90;;;;;;5052562;28;20061;-65
2022/01/06 05:37:39;;;;;;;16.95;2.97;;;0.90;99.90;;;;;;5051946;28;20041;-65
2022/01/06 05:40:05;;;;;;;8.60;2.92;;;0.90;99.90;;;;;;5052317;28;20059;-65
2022/01/06 05:42:31;;;;;;;13.85;3.38;;;0.90;99.90;;;;;;5052776;28;20399;-65
2022/01/06 05:44:56;;;;;;;12.82;2.50;;;0.90;99.90;;;;;;5050756;28;20049;-65
2022/01/06 05:47:22;;;;;;;14.55;2.53;;;1.00;99.90;;;;;;5051164;28;20055;-65
2022/01/06 05:49:48;;;;;;;13.18;2.13;;;1.00;99.90;;;;;;5050667;28;20057;-64
2022/01/06 05:52:13;;;;;;;21.05;4.03;;;1.00;99.90;;;;;;5062333;28;20055;-64
2022/01/06 05:54:39;;;;;;;8.20;2.78;;;1.10;99.90;;;;;;5052753;28;20044;-65
2022/01/06 05:57:06;;;;;;;15.27;2.42;;;1.10;99.90;;;;;;5056833;28;20097;-65
2022/01/06 05:59:32;;;;;;;14.40;3.53;;;1.10;99.90;;;;;;5065346;28;20131;-65
2022/01/06 06:01:59;;;;;;;9.50;3.25;;;1.30;99.90;;;;;;5067020;28;20127;-64
2022/01/06 06:04:24;;;;;;;12.07;1.85;;;1.00;99.90;;;;;;5059663;28;20049;-64
2022/01/06 06:06:50;;;;;;;18.45;4.20;;;1.00;99.90;;;;;;5064856;28;20106;-64
2022/01/06 06:09:16;;;;;;;20.73;3.03;;;0.90;99.90;;;;;;5056086;28;20132;-65
2022/01/06 06:11:41;;;;;;;13.93;3.13;;;0.90;99.90;;;;;;5059085;28;20072;-64
2022/01/06 06:14:07;;;;;;;8.35;1.77;;;0.90;99.90;;;;;;5054935;28;20041;-65
2022/01/06 06:16:32;;;;;;;9.25;2.28;;;0.80;99.90;;;;;;5052092;28;20098;-64
2022/01/06 06:18:58;;;;;;;12.68;2.38;;;0.70;99.90;;;;;;5051236;28;20087;-64
2022/01/06 06:21:24;;;;;;;6.75;1.98;;;0.70;99.90;;;;;;5051562;28;20052;-65
2022/01/06 06:23:50;;;;;;;10.20;1.95;;;0.60;99.90;;;;;;5052150;28;20049;-65
2022/01/06 06:26:15;;;;;;;12.52;1.85;;;0.50;99.90;;;;;;5049259;28;20090;-65
2022/01/06 06:28:41;;;;;;;7.47;1.63;;;0.50;99.90;;;;;;5051850;28;20056;-64
2022/01/06 06:31:07;;;;;;;9.55;1.80;;;0.50;99.90;;;;;;5050418;28;20112;-65
2022/01/06 06:33:32;;;;;;;11.63;2.72;;;0.50;99.90;;;;;;5050961;28;20114;-64
2022/01/06 06:35:58;;;;;;;5.97;1.95;;;0.40;99.90;;;;;;5069148;28;20041;-65
2022/01/06 06:38:23;;;;;;;11.10;2.38;;;0.40;99.90;;;;;;5070096;28;20044;-65
2022/01/06 06:40:49;;;;;;;8.05;2.50;;;0.30;99.90;;;;;;5052899;28;20048;-65
2022/01/06 06:43:15;;;;;;;10.68;2.22;;;0.30;99.90;;;;;;5051386;28;20048;-65
2022/01/06 06:45:44;;;;;;;19.35;3.45;;;0.30;99.90;;;;;;5051808;28;20041;-65
2022/01/06 06:48:10;;;;;;;10.10;3.05;;;0.30;99.90;;;;;;5070443;28;20127;-65
2022/01/06 06:50:36;;;;;;;7.70;1.95;;;0.30;99.90;;;;;;5061067;28;20111;-65
2022/01/06 06:53:05;;;;;;;14.57;2.33;;;0.20;99.90;;;;;;5063282;28;20476;-65
2022/01/06 06:55:31;;;;;;;16.73;2.38;;;0.20;99.90;;;;;;5066509;28;20186;-65
2022/01/06 06:57:57;;;;;;;15.82;2.58;;;0.20;99.90;;;;;;5053616;28;20423;-65
2022/01/06 07:00:22;;;;;;;9.18;2.25;;;0.20;99.90;;;;;;5062183;28;20052;-65
2022/01/06 07:02:48;;;;;;;11.50;2.85;;;0.30;99.90;;;;;;5051001;28;20037;-65
2022/01/06 07:05:15;;;;;;;10.48;2.17;;;0.30;99.90;;;;;;5055106;28;20052;-65
2022/01/06 07:07:42;;;;;;;5.47;2.40;;;0.20;99.90;;;;;;5050778;28;20044;-65
2022/01/06 07:10:08;;;;;;;12.32;2.00;;;0.30;99.90;;;;;;5057774;28;20037;-65
2022/01/06 07:12:41;;;;;;;12.07;3.03;;;0.40;99.90;;;;;;5071059;28;20505;-65
2022/01/06 07:15:08;;;;;;;9.73;1.70;;;0.30;99.90;;;;;;5068909;28;20102;-65
2022/01/06 07:17:34;;;;;;;12.27;1.85;;;0.40;99.90;;;;;;5070880;28;20403;-65
2022/01/06 07:19:59;;;;;;;11.82;2.20;;;0.40;99.90;;;;;;5071104;28;20057;-65
2022/01/06 07:22:25;;;;;;;11.65;1.67;;;0.50;99.90;;;;;;5068577;28;20052;-65
2022/01/06 07:24:50;;;;;;;11.95;2.08;;;0.50;99.90;;;;;;5070721;28;20040;-65
2022/01/06 07:27:16;;;;;;;8.65;1.55;;;0.70;99.90;;;;;;5070518;28;20060;-65
2022/01/06 07:29:42;;;;;;;15.13;2.45;;;0.50;99.90;;;;;;5070186;28;20715;-65
2022/01/06 07:32:07;;;;;;;9.32;2.78;;;0.60;99.90;;;;;;5069958;28;20086;-65
2022/01/06 07:34:33;;;;;;;19.05;3.17;;;0.60;99.90;;;;;;5062295;28;20399;-65
2022/01/06 07:36:59;;;;;;;7.15;2.10;;;0.60;99.90;;;;;;5049980;28;20048;-65
2022/01/06 07:39:25;;;;;;;13.63;4.32;;;0.60;99.90;;;;;;5062818;28;20052;-65
2022/01/06 07:41:51;;;;;;;8.25;2.67;;;0.60;99.90;;;;;;5067959;28;20132;-65
2022/01/06 07:44:17;;;;;;;14.75;2.97;;;0.60;99.90;;;;;;5069715;28;20143;-65
2022/01/06 07:46:45;;;;;;;8.93;2.00;;;0.60;99.90;;;;;;5064479;28;20513;-65
2022/01/06 07:49:10;;;;;;;11.07;3.03;;;0.70;99.90;;;;;;5057949;28;20041;-65
2022/01/06 07:51:36;;;;;;;10.98;2.67;;;0.60;99.90;;;;;;5058918;28;20514;-65
2022/01/06 07:54:02;;;;;;;12.38;2.40;;;0.70;99.90;;;;;;5049651;28;20060;-65
2022/01/06 07:56:27;;;;;;;14.63;3.13;;;0.70;99.90;;;;;;5049970;28;20055;-65
2022/01/06 07:58:53;;;;;;;11.90;3.20;;;0.70;99.90;;;;;;5064267;28;20053;-65
2022/01/06 08:01:19;;;;;;;11.70;3.20;;;0.80;99.90;;;;;;5064203;28;20040;-65
2022/01/06 08:03:45;;;;;;;11.60;2.67;;;1.00;99.90;;;;;;5056935;28;20041;-65
2022/01/06 08:06:11;;;;;;;18.85;3.13;;;0.80;99.90;;;;;;5062394;28;20048;-65
2022/01/06 08:08:37;;;;;;;11.35;2.85;;;0.80;99.90;;;;;;5069431;28;20131;-65
2022/01/06 08:11:03;;;;;;;19.77;3.55;;;0.90;99.90;;;;;;5061445;28;20060;-65
2022/01/06 08:13:29;;;;;;;21.52;2.25;;;1.60;99.90;;;;;;5049434;28;20049;-65
2022/01/06 08:15:55;;;;;;;9.27;2.20;;;0.90;99.90;;;;;;5050332;28;20510;-65
2022/01/06 08:18:20;;;;;;;10.05;3.38;;;1.00;99.90;;;;;;5051734;28;20041;-65
2022/01/06 08:20:46;;;;;;;12.45;4.00;;;1.10;99.90;;;;;;5050315;28;20138;-65
2022/01/06 08:23:12;;;;;;;12.25;3.60;;;1.10;99.90;;;;;;5059091;28;20044;-65
2022/01/06 08:25:38;;;;;;;13.18;3.60;;;1.10;99.90;;;;;;5052305;28;20052;-65
2022/01/06 08:28:04;;;;;;;12.63;3.80;;;1.10;99.90;;;;;;5056007;28;20505;-65
2022/01/06 08:30:30;;;;;;;17.38;3.67;;;1.20;99.90;;;;;;5064243;28;20044;-65
2022/01/06 08:32:56;;;;;;;13.25;2.80;;;1.20;99.90;;;;;;5052236;28;20055;-65
2022/01/06 08:35:22;;;;;;;13.43;3.03;;;1.20;99.90;;;;;;5052752;28;20045;-66
2022/01/06 08:37:48;;;;;;;14.48;3.13;;;1.20;99.90;;;;;;5058873;28;20044;-65
2022/01/06 08:40:14;;;;;;;15.23;3.13;;;1.20;99.90;;;;;;5064664;28;20049;-65
2022/01/06 08:42:39;;;;;;;10.60;2.15;;;1.20;99.90;;;;;;5060312;28;20465;-65
2022/01/06 08:45:07;;;;;;;17.55;4.47;;;1.10;99.90;;;;;;5052450;28;20166;-65
2022/01/06 08:47:32;;;;;;;17.73;3.33;;;1.10;99.90;;;;;;5052863;28;20116;-65
2022/01/06 08:49:58;;;;;;;19.00;5.70;;;1.10;99.90;;;;;;5053890;28;20125;-65
2022/01/06 08:52:25;;;;;;;10.80;3.03;;;1.10;99.90;;;;;;5064353;28;20490;-65
2022/01/06 08:54:50;;;;;;;14.77;3.13;;;1.20;99.90;;;;;;5051995;28;20045;-65
2022/01/06 08:57:18;;;;;;;11.20;2.53;;;1.20;99.90;;;;;;5072153;28;20051;-65
2022/01/06 08:59:44;;;;;;;15.88;3.30;;;1.20;99.90;;;;;;5072855;28;20067;-65
2022/01/06 09:02:09;;;;;;;19.73;3.17;;;1.20;99.90;;;;;;5061060;28;20040;-65
2022/01/06 09:04:35;;;;;;;8.45;2.17;;;1.20;99.90;;;;;;5062512;28;20494;-65
2022/01/06 09:07:02;;;;;;;13.90;2.78;;;1.30;99.90;;;;;;5053207;28;20037;-64
2022/01/06 09:09:28;;;;;;;15.27;3.50;;;1.30;99.90;;;;;;5064007;28;20415;-63
2022/01/06 09:11:53;;;;;;;21.23;4.38;;;1.40;99.90;;;;;;5052668;28;20049;-66
2022/01/06 09:14:19;;;;;;;16.15;3.40;;;1.50;99.90;;;;;;5051688;28;20048;-67
2022/01/06 09:16:45;;;;;;;15.75;3.42;;;1.50;99.90;;;;;;5056616;28;20519;-66
2022/01/06 09:19:11;;;;;;;12.80;3.38;;;1.60;99.90;;;;;;5057307;28;20053;-67
2022/01/06 09:21:36;;;;;;;11.35;3.05;;;1.70;99.90;;;;;;5053590;28;20049;-66
2022/01/06 09:24:09;;;;;;;11.05;2.75;;;1.80;99.90;;;;;;5064402;28;20135;-67
2022/01/06 09:26:36;;;;;;;15.95;3.70;;;1.80;99.90;;;;;;5051231;28;20114;-67
2022/01/06 09:29:06;;;;;;;14.27;4.10;;;2.00;99.90;;;;;;5056472;28;20572;-66
2022/01/06 09:31:36;;;;;;;16.15;3.08;;;2.00;99.90;;;;;;5065114;28;20506;-67
2022/01/06 09:34:03;;;;;;;11.50;3.95;;;2.10;99.90;;;;;;5057050;28;20057;-67
2022/01/06 09:36:29;;;;;;;12.02;3.15;;;2.40;99.90;;;;;;5070350;28;20047;-67
2022/01/06 09:38:56;;;;;;;14.35;3.35;;;2.30;99.90;;;;;;5072323;28;20440;-67
2022/01/06 09:41:22;;;;;;;16.30;3.03;;;2.50;99.90;;;;;;5058460;28;20055;-67
2022/01/06 09:43:51;;;;;;;10.38;2.83;;;2.60;99.90;;;;;;5058294;28;20053;-66
2022/01/06 09:46:17;;;;;;;13.55;3.10;;;2.70;99.90;;;;;;5070963;28;20048;-66
2022/01/06 09:48:43;;;;;;;13.35;3.10;;;2.80;99.90;;;;;;5067105;28;20048;-66
2022/01/06 09:51:10;;;;;;;11.98;3.60;;;2.90;99.90;;;;;;5065798;28;20056;-66
2022/01/06 09:53:35;;;;;;;15.57;3.35;;;3.00;99.90;;;;;;5052579;28;20041;-66
2022/01/06 09:56:01;;;;;;;13.32;3.63;;;3.00;99.90;;;;;;5051846;28;20048;-66
2022/01/06 09:58:28;;;;;;;18.50;4.00;;;3.20;99.90;;;;;;5069249;28;20051;-66
2022/01/06 10:00:56;;;;;;;11.90;3.45;;;3.30;99.90;;;;;;5068309;28;20122;-65
2022/01/06 10:03:42;;;;;;;10.00;3.30;;;3.30;99.90;;;;;;5069475;28;20148;-66
2022/01/06 10:06:18;;;;;;;17.85;3.38;;;3.40;99.90;;;;;;5070426;28;20088;-66
2022/01/06 10:09:03;;;;;;;17.02;4.22;;;3.40;99.90;;;;;;5072435;28;20040;-66
2022/01/06 10:11:31;;;;;;;13.23;3.60;;;3.50;99.90;;;;;;5069610;28;20524;-66
2022/01/06 10:14:00;;;;;;;10.13;3.30;;;3.50;99.90;;;;;;5072047;28;20048;-66
2022/01/06 10:16:30;;;;;;;21.13;3.58;;;3.50;99.90;;;;;;5070334;28;20049;-66
2022/01/06 10:19:00;;;;;;;10.35;2.63;;;3.60;99.90;;;;;;5063544;28;20150;-66
2022/01/06 10:21:30;;;;;;;15.75;4.10;;;3.60;99.90;;;;;;5067022;28;20513;-66
2022/01/06 10:24:08;;;;;;;15.02;3.47;;;3.80;99.90;;;;;;5065296;28;20102;-67
2022/01/06 10:26:35;;;;;;;13.80;3.80;;;3.80;99.90;;;;;;5070283;28;20048;-68
2022/01/06 10:29:03;;;;;;;15.25;3.95;;;3.90;99.90;;;;;;5070484;28;20124;-68
2022/01/06 10:31:30;;;;;;;13.45;2.97;;;3.90;99.90;;;;;;5071018;28;20036;-67
2022/01/06 10:33:56;;;;;;;15.85;3.50;;;4.00;99.90;;;;;;5063119;28;20167;-67
2022/01/06 10:36:30;;;;;;;16.65;3.13;;;4.10;99.90;;;;;;5069932;28;20040;-67
2022/01/06 10:39:02;;;;;;;14.38;3.67;;;4.10;99.90;;;;;;5064011;28;20052;-67
2022/01/06 10:41:28;;;;;;;19.23;3.80;;;4.20;99.90;;;;;;5061289;28;20154;-67
2022/01/06 10:43:59;;;;;;;19.15;4.35;;;4.20;99.90;;;;;;5057525;28;20044;-67
2022/01/06 10:46:30;;;;;;;13.18;3.78;;;4.30;99.90;;;;;;5070367;28;20502;-67
2022/01/06 10:49:01;;;;;;;23.80;4.55;;;4.30;99.90;;;;;;5068242;28;20487;-67
2022/01/06 10:51:35;;;;;;;16.02;4.40;;;4.40;99.90;;;;;;5071172;28;20045;-65
2022/01/06 10:54:01;;;;;;;10.40;3.28;;;4.40;99.90;;;;;;5070652;28;20081;-67
2022/01/06 10:56:28;;;;;;;14.65;3.20;;;4.40;99.90;;;;;;5068648;28;20135;-67
2022/01/06 10:58:59;;;;;;;14.20;3.95;;;4.50;99.90;;;;;;5050961;28;20500;-66
2022/01/06 11:01:26;;;;;;;18.93;3.90;;;4.50;99.90;;;;;;5052776;28;20068;-65
2022/01/06 11:03:51;;;;;;;15.02;2.88;;;4.50;99.90;;;;;;5050034;28;20650;-65
2022/01/06 11:06:17;;;;;;;12.60;3.92;;;4.60;99.90;;;;;;5053206;28;20044;-65
2022/01/06 11:08:43;;;;;;;13.30;3.47;;;4.60;99.90;;;;;;5054950;28;20571;-66
2022/01/06 11:13:42;;;;;;;14.38;3.50;;;4.70;99.90;;;;;;5067788;28;20059;-66
2022/01/06 11:16:10;;;;;;;10.15;2.88;;;4.80;99.90;;;;;;5070644;28;20056;-66
2022/01/06 11:18:40;;;;;;;12.98;2.58;;;4.80;99.90;;;;;;5069792;28;20491;-66
2022/01/06 11:21:16;;;;;;;14.63;2.83;;;4.90;99.90;;;;;;5070240;28;20036;-66
2022/01/06 11:23:42;;;;;;;12.45;3.25;;;4.90;99.90;;;;;;5070280;28;20087;-66
2022/01/06 11:26:27;;;;;;;10.48;3.50;;;5.00;99.90;;;;;;5068862;28;20178;-66
2022/01/06 11:28:58;;;;;;;13.93;3.65;;;5.00;99.90;;;;;;5070410;28;20063;-65
2022/01/06 11:31:26;;;;;;;;;;;5.00;99.90;;;;;;5069782;28;20058;-66
2022/01/06 11:33:53;;;;;;;17.05;3.72;;;5.10;99.90;;;;;;5070759;28;19920;-66
2022/01/06 11:36:29;;;;;;;10.68;3.58;;;5.10;99.90;;;;;;5070103;28;20101;-66
2022/01/06 11:38:56;;;;;;;12.85;2.95;;;5.20;99.90;;;;;;5069456;28;20063;-66
2022/01/06 11:41:30;;;;;;;15.00;3.53;;;5.30;99.90;;;;;;5070143;28;20032;-65
2022/01/06 11:43:58;;;;;;;16.95;3.65;;;5.30;99.90;;;;;;5069540;28;20083;-66
2022/01/06 11:46:24;;;;;;;13.02;2.78;;;5.40;99.90;;;;;;5070419;28;20486;-66
2022/01/06 11:48:57;;;;;;;18.60;3.38;;;5.50;99.90;;;;;;5070125;28;20518;-66
2022/01/06 11:51:26;;;;;;;18.13;2.92;;;5.60;99.90;;;;;;5069466;28;20487;-66
2022/01/06 11:53:52;;;;;;;15.05;4.88;;;5.60;99.90;;;;;;5069705;28;20755;-66
2022/01/06 11:56:18;;;;;;;21.90;3.38;;;5.70;99.90;;;;;;5068478;28;20054;-66
2022/01/06 11:58:59;;;;;;;13.20;3.65;;;5.80;99.90;;;;;;5070416;28;20434;-66
2022/01/06 12:01:25;;;;;;;12.30;2.70;;;5.90;99.90;;;;;;5070426;28;20056;-66
2022/01/06 12:03:51;;;;;;;22.25;3.45;;;5.90;99.90;;;;;;5070088;28;20123;-66
2022/01/06 12:06:30;;;;;;;11.57;2.78;;;6.00;99.90;;;;;;5070659;28;20076;-66
2022/01/06 12:08:57;;;;;;;12.20;3.63;;;6.00;99.90;;;;;;5070605;28;20045;-66
2022/01/06 12:11:30;;;;;;;12.40;3.53;;;6.10;99.90;;;;;;5069780;28;20087;-66
2022/01/06 12:13:59;;;;;;;10.23;3.28;;;6.10;99.90;;;;;;5072963;28;20093;-65
2022/01/06 12:16:32;;;;;;;13.40;2.45;;;6.10;99.90;;;;;;5074159;28;20052;-66
2022/01/06 12:18:59;;;;;;;12.88;3.10;;;6.20;99.90;;;;;;5072830;28;20059;-66
2022/01/06 12:21:26;;;;;;;13.13;2.58;;;6.20;99.90;;;;;;5073687;28;20441;-66
2022/01/06 12:24:04;;;;;;;11.52;1.70;;;6.30;99.90;;;;;;5073471;28;20048;-66
2022/01/06 12:26:31;;;;;;;10.50;3.05;;;6.40;99.90;;;;;;5072904;28;20088;-66
2022/01/06 12:28:56;;;;;;;8.80;2.50;;;6.30;99.90;;;;;;5074249;28;20044;-66
2022/01/06 12:31:27;;;;;;;10.98;2.78;;;6.30;99.90;;;;;;5071885;28;20643;-66
2022/01/06 12:33:58;;;;;;;16.52;2.85;;;6.40;99.90;;;;;;5074089;28;20044;-66
2022/01/06 12:36:25;;;;;;;8.48;1.77;;;6.40;99.90;;;;;;5073652;28;20102;-66
2022/01/06 12:38:51;;;;;;;11.63;2.65;;;6.40;99.90;;;;;;5073482;28;20091;-66
2022/01/06 12:41:27;;;;;;;19.20;3.78;;;6.40;99.90;;;;;;5073499;28;20462;-66
2022/01/06 12:43:55;;;;;;;12.15;2.58;;;6.30;99.90;;;;;;5073957;28;20500;-66
2022/01/06 12:46:20;;;;;;;11.45;2.50;;;6.30;99.90;;;;;;5073022;28;20098;-66
2022/01/06 12:48:51;;;;;;;10.50;2.75;;;6.40;99.90;;;;;;5073673;28;20045;-66
2022/01/06 12:51:26;;;;;;;11.60;2.25;;;6.40;99.90;;;;;;5073630;28;20048;-66
2022/01/06 12:53:59;;;;;;;6.45;2.95;;;6.40;99.90;;;;;;5072050;28;20074;-66
2022/01/06 12:56:31;;;;;;;9.70;2.05;;;6.40;99.90;;;;;;5067185;28;20045;-65
2022/01/06 12:58:59;;;;;;;11.40;2.95;;;6.40;99.90;;;;;;5057919;28;20063;-64